100LL.CA
Aviation Fuel Pricing for Canadians
Please upgrade your browser - Tested with IE9, FireFox, Chrome, Safari

Fuel Airports Other Help
Prices Economy Info List METAR/TAF Kneeboard Help

Reference Airport: PETERBOROUGH, ON
N 44 13 50  W 078 21 48
Provinces to show:

CYPQ PETERBOROUGH, ON
WEATHER
METARCYPQ 230300Z AUTO 00000KT 9SM CLR M03/M03 A2958 RMK SLP027
TAFTAF CYPQ 221940Z 2220/2303 28005KT P6SM BKN240 FM230000 VRB03KT P6SM SKC PROB30 2302/2303 1/2SM FG VV002 RMK FCST BASED ON AUTO OBS. NXT FCST BY 231100Z
OTHER SITES

FlightAware

FltPlan

Google Maps

SkyVector
FUEL
FBO 100LL
member
100LL
public
JETA MOGAS
Stewart Aviation (2020-05-12)2.1901.898
  Note: http://www.stewartaviation.ca/
Canada Flight Supplement - CYPQ
(opens in new tab/window)


Please Send Updates!

Desktop Version ]  [ Mobile Version ]  [ Disclaimer ]